»·PEaware :: N61925 L52-L88

N61925 :: L52-L88

FLIGHT INFORMATION

Flight Status: Arrived
Operator: Privately registered:
United States
More flights under this callsign
Pilot: Layner W. (45619)
Aircraft: CESSNA 172 SKYHAWK
(C172)
More flights by this aircraft type
Origin: L52 Oceano Co
United States
Destination: L88 New Cuyama
United States
More flights between these airports :: More routes between these airports
Route: EAST
File this flight plan on PilotEdge
Remarks:
Altitude:
(Current/Filed)
5,500ft
Speed:
(Current/Filed)
114kts
Departed: 16-Nov-23 07:30 PM
Arrived: 16-Nov-23 08:07 PM
Distance/Time
Traveled:
47nm/0:37
Distance/Time
To Go:
Arrived

Flight Plot

Page will automatically refresh every two minutes.

Flight plan parsing failed; only flown route is shown


Map Options




Map Legend


Flown Route
Filed Route
Departure Airport
Arrival Airport
Navaid (VOR, NDB)
Fix

Horizontal Profiles

Position Reports

Time Latitude Longitude Heading Altitude Ground
Speed
16-Nov-23 19:13 34.942753 -119.690219 64 2156ft 0kts
16-Nov-23 19:14 34.942753 -119.690219 64 2156ft 0kts
16-Nov-23 19:15 34.942753 -119.690219 64 2156ft 0kts
16-Nov-23 19:20 35.103120 -120.623936 238 22ft 0kts
16-Nov-23 19:21 35.103120 -120.623936 238 22ft 0kts
16-Nov-23 19:22 35.103120 -120.623936 238 22ft 0kts
16-Nov-23 19:23 35.103120 -120.623936 237 22ft 0kts
16-Nov-23 19:24 35.103120 -120.623936 237 22ft 0kts
16-Nov-23 19:25 35.103119 -120.623936 237 22ft 0kts
16-Nov-23 19:26 35.103119 -120.623936 237 22ft 0kts
16-Nov-23 19:27 35.103541 -120.625218 249 20ft 0kts
16-Nov-23 19:28 35.103467 -120.625311 220 21ft 7kts
16-Nov-23 19:29 35.100467 -120.608701 59 361ft 83kts
16-Nov-23 19:30 35.109150 -120.582322 90 1157ft 84kts
16-Nov-23 19:31 35.108939 -120.553904 85 1889ft 84kts
16-Nov-23 19:32 35.116130 -120.526254 91 2513ft 87kts
16-Nov-23 19:33 35.120334 -120.498578 81 3233ft 85kts
16-Nov-23 19:34 35.124288 -120.471471 78 3752ft 86kts
16-Nov-23 19:35 35.132596 -120.444628 96 4125ft 77kts
16-Nov-23 19:36 35.137192 -120.419170 79 4803ft 80kts
16-Nov-23 19:37 35.145541 -120.392573 86 5345ft 94kts
16-Nov-23 19:38 35.150578 -120.361976 108 5583ft 88kts
16-Nov-23 19:39 35.154193 -120.331742 91 5643ft 92kts
16-Nov-23 19:40 35.157669 -120.301614 98 5571ft 88kts
16-Nov-23 19:41 35.159496 -120.271739 107 5502ft 88kts
16-Nov-23 19:42 35.155728 -120.243306 106 5532ft 86kts
16-Nov-23 19:43 35.150310 -120.215323 104 5601ft 86kts
16-Nov-23 19:44 35.147551 -120.186081 111 5758ft 85kts
16-Nov-23 19:45 35.144637 -120.156717 104 5935ft 88kts
16-Nov-23 19:46 35.137075 -120.128698 116 5796ft 89kts
16-Nov-23 19:47 35.128206 -120.101676 120 5649ft 91kts
16-Nov-23 19:48 35.117044 -120.071474 116 5394ft 95kts
16-Nov-23 19:49 35.110568 -120.040418 111 5221ft 96kts
16-Nov-23 19:50 35.102112 -120.010179 116 5111ft 96kts
16-Nov-23 19:51 35.089578 -119.982094 116 5243ft 93kts
16-Nov-23 19:52 35.076326 -119.954856 124 5322ft 93kts
16-Nov-23 19:53 35.064124 -119.926634 136 5394ft 96kts
16-Nov-23 19:54 35.055048 -119.897069 110 5532ft 96kts
16-Nov-23 19:55 35.039234 -119.872175 129 5602ft 93kts
16-Nov-23 19:56 35.032835 -119.861373 130 5625ft 92kts
16-Nov-23 19:57 35.016283 -119.836731 134 5506ft 93kts
16-Nov-23 19:58 34.998914 -119.813149 134 5076ft 92kts
16-Nov-23 19:59 34.982265 -119.790838 129 4661ft 81kts
16-Nov-23 20:00 34.971524 -119.765256 117 4628ft 88kts
16-Nov-23 20:01 34.960320 -119.737680 139 4851ft 93kts
16-Nov-23 20:02 34.947701 -119.713076 112 4659ft 88kts
16-Nov-23 20:03 34.933419 -119.691628 172 4033ft 84kts
16-Nov-23 20:04 34.926289 -119.710863 299 3342ft 76kts
16-Nov-23 20:05 34.943284 -119.708057 47 2871ft 67kts
16-Nov-23 20:06 34.941236 -119.688739 114 2168ft 36kts
16-Nov-23 20:07 34.941816 -119.690181 297 2162ft 23kts
16-Nov-23 20:08 34.943491 -119.691636 198 2154ft 0kts
16-Nov-23 20:09 34.943491 -119.691636 198 2154ft 0kts
16-Nov-23 20:10 34.943491 -119.691636 198 2154ft 0kts
16-Nov-23 20:11 34.943491 -119.691636 198 2154ft 0kts
16-Nov-23 20:12 34.943491 -119.691636 198 2154ft 0kts
16-Nov-23 20:13 34.943491 -119.691636 198 2154ft 0kts
16-Nov-23 20:14 34.943491 -119.691636 198 2154ft 0kts
16-Nov-23 20:15 34.943491 -119.691636 198 2154ft 0kts
16-Nov-23 20:16 34.943491 -119.691636 198 2154ft 0kts
16-Nov-23 20:17 34.943491 -119.691636 198 2154ft 0kts

Navigation Log

Ident Type
Flight plan parsing failed, navigation log unavailable